Time;durP1;ratioP1;P1;durP2;ratioP2;P2;SDS_P1;SDS_P2;PMS_P1;PMS_P2;Temp;Humidity;BMP_temperature;BMP_pressure;BME280_temperature;BME280_humidity;BME280_pressure;Samples;Min_cycle;Max_cycle;Signal;HPM_P1;HPM_P2
2023/06/16 00:00:36;;;;;;;;;;;24.90;54.40;;;;;;5126208;27;42959;-79
2023/06/16 00:03:01;;;;;;;;;;;24.90;54.40;;;;;;5125717;27;43364;-77
2023/06/16 00:05:28;;;;;;;;;;;24.90;54.90;;;;;;5126038;27;42919;-77
2023/06/16 00:07:54;;;;;;;;;;;24.90;54.50;;;;;;5124650;27;43101;-77
2023/06/16 00:10:20;;;;;;;;;;;24.90;54.90;;;;;;5126057;27;43006;-78
2023/06/16 00:12:46;;;;;;;;;;;24.90;54.90;;;;;;5126186;27;42803;-80
2023/06/16 00:15:11;;;;;;;;;;;24.90;54.40;;;;;;5126235;27;42878;-77
2023/06/16 00:17:44;;;;;;;;;;;24.90;54.90;;;;;;5124884;27;43022;-77
2023/06/16 00:20:10;;;;;;;;;;;24.90;54.80;;;;;;5124679;27;42847;-77
2023/06/16 00:22:36;;;;;;;;;;;25.00;54.80;;;;;;5124718;27;43424;-76
2023/06/16 00:25:25;;;;;;;;;;;24.90;54.80;;;;;;5107101;27;42902;-76
2023/06/16 00:27:50;;;;;;;;;;;24.90;54.80;;;;;;5101638;27;43049;-77
2023/06/16 00:30:19;;;;;;;;;;;24.90;54.80;;;;;;5124398;27;43616;-77
2023/06/16 00:32:45;;;;;;;;;;;24.90;54.80;;;;;;5125854;27;42973;-78
2023/06/16 00:35:10;;;;;;;;;;;25.00;54.80;;;;;;5125634;27;42834;-77
2023/06/16 00:37:36;;;;;;;;;;;25.00;54.40;;;;;;5125577;27;43525;-77
2023/06/16 00:40:04;;;;;;;;;;;25.00;54.40;;;;;;5125724;27;43058;-76
2023/06/16 00:42:30;;;;;;;;;;;25.00;54.80;;;;;;5125919;27;42909;-76
2023/06/16 00:44:56;;;;;;;;;;;24.90;54.30;;;;;;5125824;27;42907;-76
2023/06/16 00:47:21;;;;;;;;;;;25.00;54.40;;;;;;5125547;27;42939;-76
2023/06/16 00:49:47;;;;;;;;;;;25.00;54.30;;;;;;5125287;27;42943;-76
2023/06/16 00:52:14;;;;;;;;;;;25.00;54.80;;;;;;5125625;27;42917;-76
2023/06/16 00:54:40;;;;;;;;;;;25.00;54.40;;;;;;5125084;27;43045;-76
2023/06/16 00:57:06;;;;;;;;;;;24.90;54.30;;;;;;5124622;27;43726;-77
2023/06/16 00:59:32;;;;;;;;;;;24.90;54.30;;;;;;5124314;27;42881;-77
2023/06/16 01:01:58;;;;;;;;;;;24.90;54.30;;;;;;5124863;27;43484;-77
2023/06/16 01:04:23;;;;;;;;;;;24.90;54.40;;;;;;5126742;27;42979;-78
2023/06/16 01:06:57;;;;;;;;;;;25.00;54.80;;;;;;5128357;27;42751;-76
2023/06/16 01:09:25;;;;;;;;;;;24.90;54.40;;;;;;5128598;27;43014;-76
2023/06/16 01:11:55;;;;;;;;;;;25.00;54.40;;;;;;5128734;27;42897;-77
2023/06/16 01:14:27;;;;;;;;;;;25.00;54.40;;;;;;5128146;27;42942;-76
2023/06/16 01:16:53;;;;;;;;;;;25.00;54.80;;;;;;5128567;27;43074;-76
2023/06/16 01:19:28;;;;;;;;;;;24.90;54.30;;;;;;5128217;27;43056;-76
2023/06/16 01:22:12;;;;;;;;;;;24.90;54.40;;;;;;5128685;27;43491;-76
2023/06/16 01:24:42;;;;;;;;;;;24.90;54.80;;;;;;5127505;27;43557;-76
2023/06/16 01:27:08;;;;;;;;;;;24.90;54.40;;;;;;5127287;27;43147;-76
2023/06/16 01:29:36;;;;;;;;;;;24.90;54.80;;;;;;5109751;27;42988;-76
2023/06/16 01:32:03;;;;;;;;;;;25.00;54.80;;;;;;5127896;27;43485;-76
2023/06/16 01:34:29;;;;;;;;;;;24.90;54.30;;;;;;5127916;27;43020;-79
2023/06/16 01:36:55;;;;;;;;;;;24.90;54.30;;;;;;5127866;27;43526;-76
2023/06/16 01:39:21;;;;;;;;;;;25.00;54.80;;;;;;5127925;27;43096;-76
2023/06/16 01:41:46;;;;;;;;;;;25.00;54.70;;;;;;5127798;27;43035;-79
2023/06/16 01:44:12;;;;;;;;;;;25.00;54.80;;;;;;5127943;27;42925;-76
2023/06/16 01:46:38;;;;;;;;;;;25.00;54.80;;;;;;5127546;27;42947;-76
2023/06/16 01:49:05;;;;;;;;;;;25.00;54.70;;;;;;5126969;27;42950;-77
2023/06/16 01:51:30;;;;;;;;;;;25.00;54.70;;;;;;5109090;27;44451;-77
2023/06/16 01:53:56;;;;;;;;;;;24.90;54.30;;;;;;5127393;27;42932;-77
2023/06/16 01:56:22;;;;;;;;;;;25.00;54.80;;;;;;5127790;27;42872;-76
2023/06/16 01:58:47;;;;;;;;;;;24.90;54.20;;;;;;5119999;27;43019;-77
2023/06/16 02:01:19;;;;;;;;;;;25.00;54.70;;;;;;5128301;27;43950;-82
2023/06/16 02:03:54;;;;;;;;;;;25.00;54.60;;;;;;5128277;27;42921;-87
2023/06/16 02:06:32;;;;;;;;;;;25.00;54.50;;;;;;5128121;27;43829;-87
2023/06/16 02:08:59;;;;;;;;;;;25.00;54.50;;;;;;5119705;27;43366;-81
2023/06/16 02:11:25;;;;;;;;;;;24.90;54.50;;;;;;5127110;27;43459;-88
2023/06/16 02:13:51;;;;;;;;;;;24.90;54.50;;;;;;5127951;27;42995;-88
2023/06/16 02:16:18;;;;;;;;;;;25.00;54.50;;;;;;5125398;27;42837;-87
2023/06/16 02:18:44;;;;;;;;;;;24.90;54.00;;;;;;5127253;27;42995;-85
2023/06/16 02:21:09;;;;;;;;;;;25.00;54.50;;;;;;5108083;27;43505;-86
2023/06/16 02:23:35;;;;;;;;;;;25.00;54.50;;;;;;5127096;27;42908;-84
2023/06/16 02:26:00;;;;;;;;;;;25.00;54.00;;;;;;5108209;27;44294;-83
2023/06/16 02:28:26;;;;;;;;;;;25.00;54.80;;;;;;5126299;27;43007;-86
2023/06/16 02:30:51;;;;;;;;;;;24.90;54.40;;;;;;5107504;27;45245;-88
2023/06/16 02:33:17;;;;;;;;;;;24.90;54.00;;;;;;5127228;27;42892;-76
2023/06/16 02:35:42;;;;;;;;;;;25.00;54.40;;;;;;5125568;27;42946;-83
2023/06/16 02:38:08;;;;;;;;;;;25.00;54.40;;;;;;5126308;27;43438;-84
2023/06/16 02:40:34;;;;;;;;;;;25.00;54.40;;;;;;5126540;27;43063;-85
2023/06/16 02:43:00;;;;;;;;;;;24.90;53.90;;;;;;5126712;27;42873;-85
2023/06/16 02:45:26;;;;;;;;;;;25.00;53.90;;;;;;5126914;27;43375;-88
2023/06/16 02:47:51;;;;;;;;;;;24.90;53.80;;;;;;5127555;27;42952;-88
2023/06/16 02:50:17;;;;;;;;;;;25.00;53.90;;;;;;5125865;27;42956;-84
2023/06/16 02:52:42;;;;;;;;;;;25.00;54.40;;;;;;5126300;27;43142;-83
2023/06/16 02:55:09;;;;;;;;;;;25.00;54.50;;;;;;5125864;27;42930;-87
2023/06/16 02:57:36;;;;;;;;;;;25.00;54.30;;;;;;5124258;27;42901;-79
2023/06/16 03:00:04;;;;;;;;;;;25.00;54.30;;;;;;5126424;27;43200;-77
2023/06/16 03:02:29;;;;;;;;;;;24.90;53.80;;;;;;5125709;27;43015;-76
2023/06/16 03:04:55;;;;;;;;;;;25.00;54.40;;;;;;5125556;27;42947;-76
2023/06/16 03:07:22;;;;;;;;;;;24.90;53.80;;;;;;5121534;27;42975;-85
2023/06/16 03:09:47;;;;;;;;;;;25.00;54.40;;;;;;5125352;27;44275;-76
2023/06/16 03:12:13;;;;;;;;;;;24.90;54.20;;;;;;5126535;27;42964;-78
2023/06/16 03:14:39;;;;;;;;;;;24.90;53.70;;;;;;5125799;27;42960;-79
2023/06/16 03:17:05;;;;;;;;;;;25.00;54.20;;;;;;5125910;27;42896;-78
2023/06/16 03:19:30;;;;;;;;;;;24.90;53.60;;;;;;5124252;27;43981;-77
2023/06/16 03:21:56;;;;;;;;;;;25.00;54.10;;;;;;5125403;27;43030;-76
2023/06/16 03:24:23;;;;;;;;;;;25.00;54.10;;;;;;5124290;27;43023;-80
2023/06/16 03:26:48;;;;;;;;;;;24.90;54.00;;;;;;5125980;27;43066;-80
2023/06/16 03:29:14;;;;;;;;;;;25.00;53.50;;;;;;5125489;27;43662;-76
2023/06/16 03:31:40;;;;;;;;;;;24.90;54.00;;;;;;5124846;27;43081;-76
2023/06/16 03:34:05;;;;;;;;;;;24.90;53.90;;;;;;5125770;27;43602;-76
2023/06/16 03:36:39;;;;;;;;;;;24.90;53.90;;;;;;5123651;27;42884;-76
2023/06/16 03:39:05;;;;;;;;;;;24.90;53.90;;;;;;5125049;27;42920;-77
2023/06/16 03:41:33;;;;;;;;;;;24.90;53.40;;;;;;5125561;27;43007;-76
2023/06/16 03:43:59;;;;;;;;;;;24.90;53.40;;;;;;5123770;27;42907;-76
2023/06/16 03:46:26;;;;;;;;;;;25.00;54.00;;;;;;5124933;27;43563;-80
2023/06/16 03:48:51;;;;;;;;;;;24.90;53.50;;;;;;5122721;27;43375;-76
2023/06/16 03:51:17;;;;;;;;;;;25.00;54.00;;;;;;5125246;27;42885;-77
2023/06/16 03:53:42;;;;;;;;;;;25.00;53.80;;;;;;5125138;27;43189;-77
2023/06/16 03:56:08;;;;;;;;;;;25.00;53.20;;;;;;5124736;27;42911;-77
2023/06/16 03:58:34;;;;;;;;;;;24.90;53.50;;;;;;5125764;27;43015;-76
2023/06/16 04:01:00;;;;;;;;;;;24.90;53.20;;;;;;5119013;27;43595;-77
2023/06/16 04:03:26;;;;;;;;;;;24.80;52.70;;;;;;5124677;27;43614;-76
2023/06/16 04:05:54;;;;;;;;;;;24.70;52.70;;;;;;5124408;27;42987;-76
2023/06/16 04:08:20;;;;;;;;;;;24.60;53.30;;;;;;5125282;27;43895;-77
2023/06/16 04:10:45;;;;;;;;;;;24.60;53.10;;;;;;5124017;27;43099;-77
2023/06/16 04:13:11;;;;;;;;;;;24.50;53.70;;;;;;5113782;27;43546;-77
2023/06/16 04:15:37;;;;;;;;;;;24.50;53.80;;;;;;5121501;27;42995;-78
2023/06/16 04:18:02;;;;;;;;;;;24.50;53.90;;;;;;5125424;27;43555;-77
2023/06/16 04:20:28;;;;;;;;;;;24.40;53.90;;;;;;5123316;27;43020;-80
2023/06/16 04:22:53;;;;;;;;;;;24.40;53.40;;;;;;5133632;22;44481;-76
2023/06/16 04:25:21;;;;;;;;;;;24.40;53.40;;;;;;5102239;27;43007;-76
2023/06/16 04:27:49;;;;;;;;;;;24.40;54.00;;;;;;5104294;27;43567;-76
2023/06/16 04:30:20;;;;;;;;;;;24.30;53.50;;;;;;5100493;27;43087;-75
2023/06/16 04:32:45;;;;;;;;;;;24.40;54.10;;;;;;5101172;27;44495;-82
2023/06/16 04:35:11;;;;;;;;;;;24.30;54.10;;;;;;5104623;27;43023;-75
2023/06/16 04:37:36;;;;;;;;;;;24.30;54.00;;;;;;5104017;27;43679;-74
2023/06/16 04:40:04;;;;;;;;;;;24.30;53.60;;;;;;5105417;27;42944;-74
2023/06/16 04:42:30;;;;;;;;;;;24.30;54.20;;;;;;5105452;27;43581;-82
2023/06/16 04:44:57;;;;;;;;;;;24.30;54.10;;;;;;5108155;27;43023;-74
2023/06/16 04:47:22;;;;;;;;;;;24.30;53.80;;;;;;5089122;27;43684;-75
2023/06/16 04:49:48;;;;;;;;;;;24.30;53.70;;;;;;5107731;27;42984;-77
2023/06/16 04:52:14;;;;;;;;;;;24.30;54.30;;;;;;5107530;27;42902;-75
2023/06/16 04:54:40;;;;;;;;;;;24.20;53.80;;;;;;5108333;27;43804;-75
2023/06/16 04:57:06;;;;;;;;;;;24.30;53.90;;;;;;5107766;27;44517;-74
2023/06/16 04:59:32;;;;;;;;;;;24.30;54.40;;;;;;5107378;27;42894;-78
2023/06/16 05:01:58;;;;;;;;;;;24.30;54.40;;;;;;5106979;27;44490;-74
2023/06/16 05:04:24;;;;;;;;;;;24.20;53.90;;;;;;5107524;27;42931;-75
2023/06/16 05:06:49;;;;;;;;;;;24.30;54.00;;;;;;5102931;27;43166;-75
2023/06/16 05:09:15;;;;;;;;;;;24.20;54.50;;;;;;5105220;27;42872;-75
2023/06/16 05:11:42;;;;;;;;;;;24.30;54.00;;;;;;5106243;27;43227;-78
2023/06/16 05:14:07;;;;;;;;;;;24.20;54.00;;;;;;5108319;27;42943;-75
2023/06/16 05:16:33;;;;;;;;;;;24.30;54.50;;;;;;5104854;27;43733;-76
2023/06/16 05:18:58;;;;;;;;;;;24.30;54.00;;;;;;5108283;27;42970;-75
2023/06/16 05:21:27;;;;;;;;;;;24.30;54.50;;;;;;5104497;27;42959;-76
2023/06/16 05:23:52;;;;;;;;;;;24.40;54.20;;;;;;5106788;27;43122;-76
2023/06/16 05:26:19;;;;;;;;;;;24.40;54.20;;;;;;5106882;27;43256;-77
2023/06/16 05:28:45;;;;;;;;;;;24.40;54.20;;;;;;5107037;27;42921;-78
2023/06/16 05:31:10;;;;;;;;;;;24.40;54.70;;;;;;5104726;27;43520;-78
2023/06/16 05:33:36;;;;;;;;;;;24.50;54.80;;;;;;5107470;27;43058;-77
2023/06/16 05:36:01;;;;;;;;;;;24.60;54.40;;;;;;5102101;27;43017;-77
2023/06/16 05:38:27;;;;;;;;;;;24.60;54.30;;;;;;5102824;27;43062;-81
2023/06/16 05:40:52;;;;;;;;;;;24.60;54.20;;;;;;5100837;27;43739;-77
2023/06/16 05:43:18;;;;;;;;;;;24.60;54.10;;;;;;5100500;27;42912;-78
2023/06/16 05:45:43;;;;;;;;;;;24.60;54.10;;;;;;5077191;27;43683;-77
2023/06/16 05:48:09;;;;;;;;;;;24.60;54.10;;;;;;5097914;27;43071;-77
2023/06/16 05:50:34;;;;;;;;;;;24.70;54.70;;;;;;5096832;27;43083;-78
2023/06/16 05:53:00;;;;;;;;;;;24.60;54.20;;;;;;5098442;27;42927;-77
2023/06/16 05:55:26;;;;;;;;;;;24.60;54.20;;;;;;5095988;27;43548;-77
2023/06/16 05:57:51;;;;;;;;;;;24.60;54.20;;;;;;5096221;27;42953;-77
2023/06/16 06:00:17;;;;;;;;;;;24.60;54.70;;;;;;5096096;27;43431;-79
2023/06/16 06:02:42;;;;;;;;;;;24.60;54.30;;;;;;5098168;27;43038;-78
2023/06/16 06:05:08;;;;;;;;;;;24.60;54.70;;;;;;5096751;27;42932;-77
2023/06/16 06:07:34;;;;;;;;;;;24.60;54.30;;;;;;5096862;27;42858;-79
2023/06/16 06:10:00;;;;;;;;;;;24.60;54.30;;;;;;5100098;27;43605;-77
2023/06/16 06:12:25;;;;;;;;;;;24.60;55.30;;;;;;5103016;27;43034;-76
2023/06/16 06:14:51;;;;;;;;;;;24.60;54.70;;;;;;5096371;27;43857;-77
2023/06/16 06:17:16;;;;;;;;;;;24.70;54.80;;;;;;5096215;27;43043;-77
2023/06/16 06:19:43;;;;;;;;;;;24.60;54.20;;;;;;5097135;27;42822;-77
2023/06/16 06:22:08;;;;;;;;;;;24.70;54.20;;;;;;5100658;27;42982;-77
2023/06/16 06:24:34;;;;;;;;;;;24.70;54.80;;;;;;5105663;27;43370;-77
2023/06/16 06:26:59;;;;;;;;;;;24.70;54.20;;;;;;5103414;27;42932;-77
2023/06/16 06:29:25;;;;;;;;;;;24.70;54.20;;;;;;5103791;27;42865;-77
2023/06/16 06:31:51;;;;;;;;;;;24.70;54.70;;;;;;5084946;27;42918;-78
2023/06/16 06:34:16;;;;;;;;;;;24.70;54.60;;;;;;5104541;27;43091;-79
2023/06/16 06:36:42;;;;;;;;;;;24.70;54.50;;;;;;5105892;27;43038;-79
2023/06/16 06:39:08;;;;;;;;;;;24.70;54.60;;;;;;5099920;27;43405;-76
2023/06/16 06:41:34;;;;;;;;;;;24.70;54.60;;;;;;5104396;27;43146;-76
2023/06/16 06:44:00;;;;;;;;;;;24.70;54.60;;;;;;5104878;27;43018;-76
2023/06/16 06:46:25;;;;;;;;;;;24.70;54.20;;;;;;5103736;27;43056;-76
2023/06/16 06:48:51;;;;;;;;;;;24.70;54.70;;;;;;5105668;27;43303;-76
2023/06/16 06:51:16;;;;;;;;;;;24.80;54.30;;;;;;5105653;27;42790;-76
2023/06/16 06:53:43;;;;;;;;;;;24.70;54.70;;;;;;5102713;27;43041;-77
2023/06/16 06:56:08;;;;;;;;;;;24.70;54.70;;;;;;5106974;27;43176;-77
2023/06/16 06:58:34;;;;;;;;;;;24.70;54.30;;;;;;5103791;27;43186;-77
2023/06/16 07:00:59;;;;;;;;;;;24.70;54.30;;;;;;5081991;27;43051;-77
2023/06/16 07:03:26;;;;;;;;;;;24.70;54.80;;;;;;5102142;27;43465;-77
2023/06/16 07:05:52;;;;;;;;;;;24.70;54.80;;;;;;5103900;27;42977;-77
2023/06/16 07:08:17;;;;;;;;;;;24.70;54.40;;;;;;5100275;27;43952;-76
2023/06/16 07:10:43;;;;;;;;;;;24.80;54.40;;;;;;5105310;27;42885;-77
2023/06/16 07:13:08;;;;;;;;;;;24.80;54.50;;;;;;5103589;27;42946;-77
2023/06/16 07:15:34;;;;;;;;;;;24.70;54.40;;;;;;5105745;27;42936;-77
2023/06/16 07:17:59;;;;;;;;;;;24.70;54.40;;;;;;5103728;27;43942;-77
2023/06/16 07:20:25;;;;;;;;;;;24.80;54.50;;;;;;5105742;27;42916;-77
2023/06/16 07:22:50;;;;;;;;;;;24.80;54.50;;;;;;5105325;27;42932;-77
2023/06/16 07:25:16;;;;;;;;;;;24.80;54.50;;;;;;5105318;27;43001;-77
2023/06/16 07:27:43;;;;;;;;;;;24.70;55.00;;;;;;5105795;27;43386;-77
2023/06/16 07:30:09;;;;;;;;;;;24.80;54.50;;;;;;5087342;27;43161;-78
2023/06/16 07:32:36;;;;;;;;;;;24.80;54.50;;;;;;5106446;27;43484;-76
2023/06/16 07:35:02;;;;;;;;;;;24.80;55.00;;;;;;5106607;27;42851;-76
2023/06/16 07:37:30;;;;;;;;;;;24.80;54.90;;;;;;5106790;27;43730;-77
2023/06/16 07:39:55;;;;;;;;;;;24.70;54.50;;;;;;5106119;27;42919;-76
2023/06/16 07:42:21;;;;;;;;;;;24.80;55.10;;;;;;5105247;27;42914;-78
2023/06/16 07:44:47;;;;;;;;;;;24.80;54.50;;;;;;5106100;27;43006;-77
2023/06/16 07:47:13;;;;;;;;;;;24.80;54.50;;;;;;5106262;27;43914;-77
2023/06/16 07:49:38;;;;;;;;;;;24.80;54.50;;;;;;5106285;27;43060;-77
2023/06/16 07:52:04;;;;;;;;;;;24.80;54.90;;;;;;5106274;27;42951;-77
2023/06/16 07:54:30;;;;;;;;;;;24.80;54.30;;;;;;5106142;27;43011;-77
2023/06/16 07:56:55;;;;;;;;;;;24.80;54.30;;;;;;5086881;27;45408;-78
2023/06/16 07:59:21;;;;;;;;;;;24.80;54.30;;;;;;5105971;27;42865;-77
2023/06/16 08:01:47;;;;;;;;;;;24.80;54.30;;;;;;5106180;27;42955;-77
2023/06/16 08:04:12;;;;;;;;;;;24.80;54.30;;;;;;5087194;27;43123;-78
2023/06/16 08:06:39;;;;;;;;;;;24.80;54.90;;;;;;5105274;27;43553;-77
2023/06/16 08:09:07;;;;;;;;;;;24.80;54.30;;;;;;5099235;27;42977;-77
2023/06/16 08:11:36;;;;;;;;;;;24.80;54.30;;;;;;5096416;27;43429;-78
2023/06/16 08:14:01;;;;;;;;;;;24.90;54.70;;;;;;5105306;27;43063;-78
2023/06/16 08:16:27;;;;;;;;;;;24.80;54.00;;;;;;5108611;27;42977;-78
2023/06/16 08:18:56;;;;;;;;;;;24.80;53.70;;;;;;5108501;27;43159;-77
2023/06/16 08:21:22;;;;;;;;;;;24.80;54.20;;;;;;5108696;27;43565;-77
2023/06/16 08:23:47;;;;;;;;;;;24.90;54.10;;;;;;5108897;27;42909;-77
2023/06/16 08:26:13;;;;;;;;;;;24.80;53.80;;;;;;5108741;27;43336;-78
2023/06/16 08:28:39;;;;;;;;;;;;;;;;;;5108691;27;42943;-76
2023/06/16 08:31:05;;;;;;;;;;;24.80;52.60;;;;;;5108757;27;43574;-76
2023/06/16 08:33:32;;;;;;;;;;;24.80;52.10;;;;;;5103574;27;43489;-76
2023/06/16 08:35:57;;;;;;;;;;;24.80;52.50;;;;;;5098698;27;43104;-76
2023/06/16 08:38:23;;;;;;;;;;;24.80;52.80;;;;;;5097739;27;42952;-77
2023/06/16 08:40:49;;;;;;;;;;;24.80;52.20;;;;;;5095991;27;43681;-80
2023/06/16 08:43:15;;;;;;;;;;;24.80;52.20;;;;;;5097115;27;42930;-79
2023/06/16 08:45:40;;;;;;;;;;;24.80;52.70;;;;;;5098616;27;43671;-78
2023/06/16 08:48:06;;;;;;;;;;;24.80;52.50;;;;;;5097531;27;42922;-78
2023/06/16 08:50:32;;;;;;;;;;;24.80;52.30;;;;;;5086206;27;43616;-78
2023/06/16 08:52:58;;;;;;;;;;;24.90;52.20;;;;;;5097852;27;43087;-78
2023/06/16 08:55:25;;;;;;;;;;;24.90;52.70;;;;;;5097659;27;43404;-78
2023/06/16 08:57:52;;;;;;;;;;;24.90;53.10;;;;;;5096524;27;42971;-78
2023/06/16 09:00:18;;;;;;;;;;;24.80;52.30;;;;;;5099125;27;42974;-78
2023/06/16 09:02:48;;;;;;;;;;;24.80;52.60;;;;;;5098038;27;42826;-78
2023/06/16 09:05:15;;;;;;;;;;;24.90;53.30;;;;;;5098653;27;43066;-79
2023/06/16 09:07:41;;;;;;;;;;;24.80;52.80;;;;;;5097588;27;42966;-79
2023/06/16 09:10:07;;;;;;;;;;;24.90;52.90;;;;;;5079723;27;44721;-79
2023/06/16 09:12:33;;;;;;;;;;;24.90;52.90;;;;;;5098135;27;42967;-79
2023/06/16 09:15:01;;;;;;;;;;;24.90;52.90;;;;;;5078951;27;44660;-79
2023/06/16 09:17:29;;;;;;;;;;;24.90;52.80;;;;;;5096422;27;42802;-78
2023/06/16 09:19:55;;;;;;;;;;;24.90;52.70;;;;;;5082946;27;44422;-79
2023/06/16 09:22:26;;;;;;;;;;;24.90;52.70;;;;;;5076572;27;43035;-78
2023/06/16 09:25:01;;;;;;;;;;;24.90;52.60;;;;;;5098933;27;43647;-80
2023/06/16 09:27:40;;;;;;;;;;;24.90;52.60;;;;;;5098047;27;42823;-77
2023/06/16 09:30:06;;;;;;;;;;;24.90;52.60;;;;;;5087250;27;44559;-76
2023/06/16 09:32:38;;;;;;;;;;;24.90;52.50;;;;;;5098652;27;42934;-77
2023/06/16 09:35:23;;;;;;;;;;;24.90;52.60;;;;;;5095557;27;43925;-80
2023/06/16 09:37:50;;;;;;;;;;;24.90;52.60;;;;;;5105547;27;42874;-78
2023/06/16 09:40:16;;;;;;;;;;;24.90;52.70;;;;;;5107058;27;43043;-77
2023/06/16 09:42:43;;;;;;;;;;;24.90;52.70;;;;;;5103337;27;43016;-80
2023/06/16 09:45:15;;;;;;;;;;;24.90;52.70;;;;;;5106861;27;43908;-79
2023/06/16 09:47:45;;;;;;;;;;;24.90;52.70;;;;;;5088332;27;43004;-80
2023/06/16 09:50:14;;;;;;;;;;;24.90;52.70;;;;;;5107372;27;42947;-78
2023/06/16 09:52:43;;;;;;;;;;;24.90;52.70;;;;;;5106712;27;43023;-78
2023/06/16 09:55:09;;;;;;;;;;;24.90;52.80;;;;;;5088616;27;43763;-82
2023/06/16 09:57:36;;;;;;;;;;;24.90;52.70;;;;;;5106969;27;42969;-78
2023/06/16 10:00:04;;;;;;;;;;;24.90;53.20;;;;;;5107163;27;43521;-77
2023/06/16 10:02:31;;;;;;;;;;;24.90;52.80;;;;;;5107141;27;42942;-81
2023/06/16 10:04:59;;;;;;;;;;;24.90;52.80;;;;;;5106988;27;43966;-81
2023/06/16 10:07:25;;;;;;;;;;;24.90;52.90;;;;;;5095624;27;43060;-77
2023/06/16 10:09:51;;;;;;;;;;;25.00;52.90;;;;;;5105006;27;43867;-79
2023/06/16 10:12:18;;;;;;;;;;;24.90;52.80;;;;;;5106535;27;42817;-81
2023/06/16 10:14:44;;;;;;;;;;;25.00;52.90;;;;;;5106275;27;43932;-78
2023/06/16 10:17:10;;;;;;;;;;;24.90;52.80;;;;;;5106419;27;43009;-77
2023/06/16 10:19:37;;;;;;;;;;;25.00;52.90;;;;;;5103143;27;42897;-77
2023/06/16 10:22:03;;;;;;;;;;;25.00;52.90;;;;;;5107484;27;43134;-79
2023/06/16 10:24:29;;;;;;;;;;;;;;;;;;5106740;27;43703;-79
2023/06/16 10:26:58;;;;;;;;;;;25.00;53.10;;;;;;5107108;27;43073;-77
2023/06/16 10:29:25;;;;;;;;;;;25.00;53.10;;;;;;5104529;27;43124;-78
2023/06/16 10:32:06;;;;;;;;;;;25.00;53.20;;;;;;5105952;27;42968;-79
2023/06/16 10:34:35;;;;;;;;;;;25.00;53.20;;;;;;5094447;27;43055;-78
2023/06/16 10:37:01;;;;;;;;;;;25.00;53.20;;;;;;5098495;27;42951;-81
2023/06/16 10:39:27;;;;;;;;;;;25.00;53.20;;;;;;5100319;27;42999;-78
2023/06/16 10:41:59;;;;;;;;;;;25.00;53.30;;;;;;5106716;27;42926;-77
2023/06/16 10:44:25;;;;;;;;;;;25.00;53.30;;;;;;5106366;27;43005;-78
2023/06/16 10:47:09;;;;;;;;;;;25.00;53.30;;;;;;5106112;27;42963;-80
2023/06/16 10:49:55;;;;;;;;;;;25.00;53.30;;;;;;5105849;27;42990;-81
2023/06/16 10:52:30;;;;;;;;;;;25.00;53.40;;;;;;5103405;27;43108;-78
2023/06/16 10:55:14;;;;;;;;;;;25.00;53.80;;;;;;5081616;27;44572;-78
2023/06/16 10:57:41;;;;;;;;;;;25.00;53.20;;;;;;5102413;27;42943;-77
2023/06/16 11:00:11;;;;;;;;;;;25.00;53.20;;;;;;5098548;27;43015;-78
2023/06/16 11:02:37;;;;;;;;;;;25.10;53.20;;;;;;5103555;27;43284;-81
2023/06/16 11:05:09;;;;;;;;;;;25.10;53.20;;;;;;5102402;27;43073;-77
2023/06/16 11:07:42;;;;;;;;;;;25.00;53.70;;;;;;5102318;27;43222;-77
2023/06/16 11:10:08;;;;;;;;;;;25.10;53.80;;;;;;5101530;27;43029;-77
2023/06/16 11:12:34;;;;;;;;;;;25.10;53.30;;;;;;5105209;27;42912;-79
2023/06/16 11:15:00;;;;;;;;;;;25.10;53.10;;;;;;5106213;27;42979;-81
2023/06/16 11:17:25;;;;;;;;;;;25.00;53.10;;;;;;5106970;27;43100;-81
2023/06/16 11:19:54;;;;;;;;;;;25.10;53.00;;;;;;5105833;27;42946;-79
2023/06/16 11:22:26;;;;;;;;;;;25.10;53.50;;;;;;5105419;27;43042;-80
2023/06/16 11:24:51;;;;;;;;;;;25.10;53.40;;;;;;5105375;27;42985;-77
2023/06/16 11:27:20;;;;;;;;;;;25.10;52.80;;;;;;5104457;27;59696;-78
2023/06/16 11:29:46;;;;;;;;;;;25.10;53.40;;;;;;5105777;27;43334;-78
2023/06/16 11:32:12;;;;;;;;;;;25.10;53.30;;;;;;5105468;27;42992;-78
2023/06/16 11:34:38;;;;;;;;;;;25.10;53.40;;;;;;5103500;27;43633;-77
2023/06/16 11:37:04;;;;;;;;;;;25.10;53.30;;;;;;5101292;27;43050;-77
2023/06/16 11:39:40;;;;;;;;;;;25.00;52.70;;;;;;5102707;27;43018;-78
2023/06/16 11:42:10;;;;;;;;;;;25.00;52.90;;;;;;5103584;27;43038;-75
2023/06/16 11:44:36;;;;;;;;;;;25.10;52.20;;;;;;5101508;27;43604;-78
2023/06/16 11:47:02;;;;;;;;;;;25.10;51.50;;;;;;5099202;27;43119;-77
2023/06/16 11:49:27;;;;;;;;;;;24.90;50.60;;;;;;5078503;27;44297;-80
2023/06/16 11:51:53;;;;;;;;;;;24.60;52.20;;;;;;5103636;27;42976;-82
2023/06/16 11:54:20;;;;;;;;;;;24.40;54.30;;;;;;5104551;27;42721;-77
2023/06/16 11:56:48;;;;;;;;;;;24.40;54.40;;;;;;5104796;27;42954;-76
2023/06/16 11:59:14;;;;;;;;;;;24.30;52.40;;;;;;5086218;27;44402;-80
2023/06/16 12:01:40;;;;;;;;;;;24.20;52.40;;;;;;5104645;27;43073;-77
2023/06/16 12:04:06;;;;;;;;;;;24.30;52.80;;;;;;5104398;27;43014;-78
2023/06/16 12:06:33;;;;;;;;;;;24.30;53.00;;;;;;5086392;27;42978;-76
2023/06/16 12:08:59;;;;;;;;;;;24.30;53.20;;;;;;5102707;27;42963;-76
2023/06/16 12:11:28;;;;;;;;;;;24.40;53.00;;;;;;5099279;27;42952;-78
2023/06/16 12:13:54;;;;;;;;;;;24.50;52.10;;;;;;5099367;27;43515;-76
2023/06/16 12:16:20;;;;;;;;;;;24.60;50.70;;;;;;5104563;27;43000;-78
2023/06/16 12:18:50;;;;;;;;;;;24.70;51.00;;;;;;5104399;27;42987;-86
2023/06/16 12:21:18;;;;;;;;;;;24.80;51.10;;;;;;5101871;27;42893;-76
2023/06/16 12:23:48;;;;;;;;;;;24.70;51.50;;;;;;5101650;27;43699;-75
2023/06/16 12:26:26;;;;;;;;;;;24.80;50.60;;;;;;5104632;27;43030;-75
2023/06/16 12:28:53;;;;;;;;;;;24.90;50.00;;;;;;5103234;27;42813;-77
2023/06/16 12:31:19;;;;;;;;;;;24.90;50.90;;;;;;5104805;27;42880;-76
2023/06/16 12:33:45;;;;;;;;;;;24.90;49.60;;;;;;5094292;27;42986;-76
2023/06/16 12:36:10;;;;;;;;;;;24.90;49.40;;;;;;5104008;27;42903;-76
2023/06/16 12:38:36;;;;;;;;;;;24.90;49.60;;;;;;5104317;27;43035;-76
2023/06/16 12:41:02;;;;;;;;;;;24.90;50.20;;;;;;5104796;27;43071;-76
2023/06/16 12:43:28;;;;;;;;;;;24.90;50.60;;;;;;5104297;27;43869;-75
2023/06/16 12:45:53;;;;;;;;;;;25.00;50.90;;;;;;5104178;27;42974;-76
2023/06/16 12:48:19;;;;;;;;;;;25.00;51.20;;;;;;5103469;27;43692;-77
2023/06/16 12:50:45;;;;;;;;;;;24.90;50.90;;;;;;5104914;27;42814;-75
2023/06/16 12:53:10;;;;;;;;;;;25.10;51.10;;;;;;5105707;27;43303;-76
2023/06/16 12:55:36;;;;;;;;;;;25.10;51.70;;;;;;5086784;27;43076;-76
2023/06/16 12:58:01;;;;;;;;;;;25.10;51.30;;;;;;5105357;27;43972;-76
2023/06/16 13:00:27;;;;;;;;;;;25.10;51.30;;;;;;5104885;27;42981;-82
2023/06/16 13:02:53;;;;;;;;;;;25.10;51.30;;;;;;5108879;27;43816;-76
2023/06/16 13:05:20;;;;;;;;;;;25.20;51.40;;;;;;5108966;27;43068;-76
2023/06/16 13:07:47;;;;;;;;;;;25.20;51.90;;;;;;5108650;27;43855;-76
2023/06/16 13:10:13;;;;;;;;;;;25.20;51.80;;;;;;5108938;27;42995;-76
2023/06/16 13:12:38;;;;;;;;;;;25.20;51.70;;;;;;5108789;27;43961;-82
2023/06/16 13:15:04;;;;;;;;;;;25.20;50.80;;;;;;5108430;27;42865;-81
2023/06/16 13:17:30;;;;;;;;;;;25.20;50.70;;;;;;5108295;27;42834;-81
2023/06/16 13:19:55;;;;;;;;;;;25.20;50.40;;;;;;5089853;27;42986;-76
2023/06/16 13:22:21;;;;;;;;;;;25.20;50.80;;;;;;5108563;27;42924;-75
2023/06/16 13:24:46;;;;;;;;;;;25.10;50.50;;;;;;5089638;27;42770;-76
2023/06/16 13:27:12;;;;;;;;;;;25.20;49.70;;;;;;5108125;27;42986;-82
2023/06/16 13:29:37;;;;;;;;;;;25.10;49.10;;;;;;5108779;27;42853;-82
2023/06/16 13:32:03;;;;;;;;;;;25.10;48.40;;;;;;5108136;27;43312;-76
2023/06/16 13:34:28;;;;;;;;;;;25.10;49.10;;;;;;5108433;27;43115;-75
2023/06/16 13:36:54;;;;;;;;;;;25.10;48.90;;;;;;5107380;27;42868;-81
2023/06/16 13:39:20;;;;;;;;;;;25.10;48.40;;;;;;5089549;27;43139;-76
2023/06/16 13:41:45;;;;;;;;;;;25.10;47.80;;;;;;5107989;27;43790;-76
2023/06/16 13:44:12;;;;;;;;;;;25.10;48.60;;;;;;5108562;27;42820;-81
2023/06/16 13:46:38;;;;;;;;;;;25.10;48.60;;;;;;5107707;27;42950;-75
2023/06/16 13:49:03;;;;;;;;;;;25.10;48.50;;;;;;5089564;27;42922;-76
2023/06/16 13:51:29;;;;;;;;;;;25.10;48.60;;;;;;5107695;27;42905;-83
2023/06/16 13:53:54;;;;;;;;;;;25.10;48.50;;;;;;5108219;27;43060;-76
2023/06/16 13:56:20;;;;;;;;;;;25.10;48.60;;;;;;5108011;27;42788;-76
2023/06/16 13:58:46;;;;;;;;;;;25.10;48.30;;;;;;5107652;27;42851;-78
2023/06/16 14:01:11;;;;;;;;;;;25.20;48.70;;;;;;5106485;27;43523;-81
2023/06/16 14:03:37;;;;;;;;;;;25.20;49.30;;;;;;5108036;27;42850;-76
2023/06/16 14:06:02;;;;;;;;;;;25.20;48.80;;;;;;5107595;27;43567;-78
2023/06/16 14:08:28;;;;;;;;;;;25.20;48.90;;;;;;5107741;27;42923;-77
2023/06/16 14:10:55;;;;;;;;;;;25.20;48.90;;;;;;5107072;27;43029;-76
2023/06/16 14:13:20;;;;;;;;;;;25.20;48.90;;;;;;5105557;27;42957;-75
2023/06/16 14:15:50;;;;;;;;;;;25.20;49.30;;;;;;5106734;27;43614;-81